createdAt,value
2018-02-09T00:01:37.658Z,95093.24
2018-02-09T00:04:05.626Z,95080.81
2018-02-09T00:06:33.591Z,95074.53
2018-02-09T00:09:01.655Z,95090.64
2018-02-09T00:11:29.630Z,95081.85
2018-02-09T00:13:57.603Z,95091.99
2018-02-09T00:16:25.648Z,95090.84
2018-02-09T00:18:53.670Z,95077.70
2018-02-09T00:21:21.698Z,95085.22
2018-02-09T00:23:49.638Z,95086.30
2018-02-09T00:26:17.655Z,95080.61
2018-02-09T00:28:45.646Z,95082.33
2018-02-09T00:31:13.650Z,95086.70
2018-02-09T00:33:41.631Z,95088.20
2018-02-09T00:36:09.620Z,95083.97
2018-02-09T00:38:37.648Z,95090.61
2018-02-09T00:41:05.666Z,95096.48
2018-02-09T00:43:33.694Z,95091.96
2018-02-09T00:46:02.506Z,95096.60
2018-02-09T00:48:30.522Z,95098.84
2018-02-09T00:50:58.567Z,95100.03
2018-02-09T00:53:26.614Z,95098.31
2018-02-09T00:55:54.604Z,95104.53
2018-02-09T00:58:22.610Z,95103.11
2018-02-09T01:00:50.602Z,95100.69
2018-02-09T01:03:18.504Z,95088.55
2018-02-09T01:05:46.463Z,95098.17
2018-02-09T01:08:14.437Z,95089.31
2018-02-09T01:10:42.479Z,95091.26
2018-02-09T01:13:10.432Z,95095.13
2018-02-09T01:15:38.464Z,95093.95
2018-02-09T01:18:06.475Z,95095.68
2018-02-09T01:20:34.379Z,95105.39
2018-02-09T01:23:02.423Z,95093.56
2018-02-09T01:25:30.462Z,95099.92
2018-02-09T01:27:58.465Z,95090.66
2018-02-09T01:30:26.430Z,95096.72
2018-02-09T01:32:54.449Z,95098.05
2018-02-09T01:35:22.422Z,95098.70
2018-02-09T01:37:50.476Z,95099.35
2018-02-09T01:40:18.373Z,95093.84
2018-02-09T01:42:46.376Z,95098.84
2018-02-09T01:45:14.339Z,95082.98
2018-02-09T01:47:43.084Z,95086.31
2018-02-09T01:50:17.095Z,95079.82
2018-02-09T01:52:45.086Z,95087.88
2018-02-09T01:55:13.205Z,95077.30
2018-02-09T01:57:41.202Z,95093.14
2018-02-09T02:00:09.219Z,95096.60
2018-02-09T02:02:37.218Z,95109.64
2018-02-09T02:05:05.197Z,95114.01
2018-02-09T02:07:33.202Z,95107.28
2018-02-09T02:10:01.209Z,95113.73
2018-02-09T02:12:29.206Z,95104.92
2018-02-09T02:14:57.242Z,95099.86
2018-02-09T02:17:25.223Z,95101.75
2018-02-09T02:19:53.257Z,95113.85
2018-02-09T02:22:21.201Z,95104.11
2018-02-09T02:24:49.279Z,95103.58
2018-02-09T02:27:17.223Z,95101.18
2018-02-09T02:29:45.175Z,95099.73
2018-02-09T02:32:13.233Z,95099.23
2018-02-09T02:34:41.191Z,95109.50
2018-02-09T02:37:09.203Z,95106.55
2018-02-09T02:39:37.264Z,95103.66
2018-02-09T02:42:05.326Z,95109.86
2018-02-09T02:44:33.379Z,95105.64
2018-02-09T02:47:01.393Z,95108.16
2018-02-09T02:49:29.757Z,95113.00
2018-02-09T02:51:58.270Z,95116.29
2018-02-09T02:54:26.308Z,95107.78
2018-02-09T02:56:54.267Z,95122.05
2018-02-09T02:59:22.254Z,95119.33
2018-02-09T03:01:50.238Z,95119.60
2018-02-09T03:04:18.161Z,95122.35
2018-02-09T03:06:46.165Z,95116.42
2018-02-09T03:09:14.178Z,95109.89
2018-02-09T03:11:42.239Z,95115.81
2018-02-09T03:14:10.286Z,95116.03
2018-02-09T03:16:38.266Z,95108.72
2018-02-09T03:19:06.314Z,95109.06
2018-02-09T03:21:34.317Z,95102.88
2018-02-09T03:24:02.346Z,95097.48
2018-02-09T03:26:30.271Z,95096.11
2018-02-09T03:28:58.184Z,95100.32
2018-02-09T03:31:26.052Z,95108.12
2018-02-09T03:33:53.987Z,95109.33
2018-02-09T03:36:21.946Z,95109.59
2018-02-09T03:38:49.913Z,95109.45
2018-02-09T03:41:17.834Z,95109.16
2018-02-09T03:43:45.802Z,95104.26
2018-02-09T03:46:13.790Z,95105.23
2018-02-09T03:48:41.782Z,95107.13
2018-02-09T03:51:09.993Z,95105.07
2018-02-09T03:53:37.946Z,95101.02
2018-02-09T03:56:05.950Z,95099.89
2018-02-09T03:58:33.933Z,95102.54
2018-02-09T04:01:01.921Z,95117.88
2018-02-09T04:03:29.943Z,95114.97
2018-02-09T04:05:57.936Z,95115.60
2018-02-09T04:08:25.900Z,95108.84
2018-02-09T04:10:53.936Z,95109.80
2018-02-09T04:13:21.931Z,95113.21
2018-02-09T04:15:49.902Z,95112.10
2018-02-09T04:18:17.894Z,95105.33
2018-02-09T04:20:45.982Z,95099.78
2018-02-09T04:23:13.966Z,95089.94
2018-02-09T04:25:41.955Z,95097.72
2018-02-09T04:28:09.969Z,95092.92
2018-02-09T04:30:38.040Z,95090.95
2018-02-09T04:33:06.063Z,95097.02
2018-02-09T04:35:34.039Z,95090.84
2018-02-09T04:38:01.946Z,95094.30
2018-02-09T04:40:29.938Z,95089.41
2018-02-09T04:42:57.921Z,95100.44
2018-02-09T04:45:27.211Z,95093.13
2018-02-09T04:47:55.154Z,95093.59
2018-02-09T04:50:23.127Z,95096.95
2018-02-09T04:52:51.374Z,95093.76
2018-02-09T04:55:19.393Z,95095.06
2018-02-09T04:57:47.372Z,95114.52
2018-02-09T05:00:15.387Z,95112.91
2018-02-09T05:02:43.382Z,95118.78
2018-02-09T05:05:11.402Z,95114.78
2018-02-09T05:07:39.454Z,95114.78
2018-02-09T05:10:07.419Z,95127.73
2018-02-09T05:12:35.406Z,95131.08
2018-02-09T05:15:03.360Z,95103.43
2018-02-09T05:17:31.315Z,95126.14
2018-02-09T05:19:59.313Z,95128.53
2018-02-09T05:22:27.402Z,95134.87
2018-02-09T05:24:55.414Z,95146.89
2018-02-09T05:27:23.400Z,95135.43
2018-02-09T05:29:51.368Z,95144.33
2018-02-09T05:32:19.288Z,95150.14
2018-02-09T05:34:47.267Z,95145.55
2018-02-09T05:37:15.282Z,95146.09
2018-02-09T05:39:43.303Z,95158.84
2018-02-09T05:42:11.306Z,95153.10
2018-02-09T05:44:39.321Z,95155.06
2018-02-09T05:47:07.332Z,95164.28
2018-02-09T05:49:35.335Z,95168.37
2018-02-09T05:52:03.340Z,95177.31
2018-02-09T05:54:31.847Z,95179.85
2018-02-09T05:56:59.859Z,95178.95
2018-02-09T05:59:27.827Z,95190.22
2018-02-09T06:01:55.730Z,95194.25
2018-02-09T06:04:23.711Z,95200.86
2018-02-09T06:06:51.706Z,95205.05
2018-02-09T06:09:19.587Z,95207.51
2018-02-09T06:11:47.567Z,95208.89
2018-02-09T06:14:15.903Z,95208.53
2018-02-09T06:16:43.967Z,95221.45
2018-02-09T06:19:11.991Z,95219.89
2018-02-09T06:21:40.017Z,95215.55
2018-02-09T06:24:08.063Z,95238.61
2018-02-09T06:26:36.084Z,95241.25
2018-02-09T06:29:04.660Z,95239.30
2018-02-09T06:31:33.620Z,95235.70
2018-02-09T06:34:01.737Z,95242.45
2018-02-09T06:36:29.857Z,95247.75
2018-02-09T06:38:57.945Z,95262.58
2018-02-09T06:41:25.980Z,95254.90
2018-02-09T06:43:54.032Z,95251.45
2018-02-09T06:46:22.051Z,95247.74
2018-02-09T06:48:50.107Z,95243.75
2018-02-09T06:51:18.162Z,95240.84
2018-02-09T06:53:46.208Z,95245.09
2018-02-09T06:56:14.683Z,95246.22
2018-02-09T06:58:42.538Z,95231.25
2018-02-09T07:01:10.555Z,95239.81
2018-02-09T07:03:38.547Z,95237.11
2018-02-09T07:06:06.546Z,95241.31
2018-02-09T07:08:34.631Z,95240.66
2018-02-09T07:11:02.590Z,95235.20
2018-02-09T07:13:30.793Z,95163.52
2018-02-09T07:15:59.277Z,95219.50
2018-02-09T07:18:27.845Z,95229.95
2018-02-09T07:20:56.557Z,95219.81
2018-02-09T07:23:24.651Z,95211.30
2018-02-09T07:25:52.650Z,95208.47
2018-02-09T07:28:21.862Z,95211.73
2018-02-09T07:30:50.961Z,95208.19
2018-02-09T07:33:19.545Z,95204.02
2018-02-09T07:35:47.508Z,95192.56
2018-02-09T07:38:15.552Z,95189.31
2018-02-09T07:40:44.182Z,95187.89
2018-02-09T07:43:12.232Z,95187.58
2018-02-09T07:45:40.249Z,95178.63
2018-02-09T07:48:08.234Z,95182.31
2018-02-09T07:50:36.248Z,95187.50
2018-02-09T07:53:04.161Z,95180.72
2018-02-09T07:55:32.149Z,95188.16
2018-02-09T07:58:00.694Z,95181.14
2018-02-09T08:00:28.654Z,95181.09
2018-02-09T08:02:56.701Z,95177.28
2018-02-09T08:05:24.685Z,95185.19
2018-02-09T08:07:52.635Z,95188.41
2018-02-09T08:10:20.596Z,95190.16
2018-02-09T08:12:48.599Z,95187.94
2018-02-09T08:15:16.552Z,95187.93
2018-02-09T08:17:44.579Z,95191.43
2018-02-09T08:20:12.517Z,95181.56
2018-02-09T08:22:40.538Z,95187.00
2018-02-09T08:25:08.522Z,95187.91
2018-02-09T08:27:36.525Z,95186.16
2018-02-09T08:30:04.592Z,95178.33
2018-02-09T08:32:32.542Z,95187.47
2018-02-09T08:35:00.607Z,95185.88
2018-02-09T08:37:28.581Z,95186.73
2018-02-09T08:39:56.591Z,95180.14
2018-02-09T08:42:24.492Z,95174.23
2018-02-09T08:44:52.386Z,95180.73
2018-02-09T08:47:20.403Z,95174.33
2018-02-09T08:49:48.393Z,95184.83
2018-02-09T08:52:16.409Z,95186.64
2018-02-09T08:54:44.414Z,95182.19
2018-02-09T08:57:12.409Z,95172.24
2018-02-09T08:59:41.223Z,95168.33
2018-02-09T09:02:09.196Z,95166.28
2018-02-09T09:04:37.167Z,95165.42
2018-02-09T09:07:05.168Z,95169.34
2018-02-09T09:09:33.143Z,95175.47
2018-02-09T09:12:01.232Z,95152.44
2018-02-09T09:14:29.239Z,95151.98
2018-02-09T09:16:57.228Z,95156.38
2018-02-09T09:19:25.192Z,95160.34
2018-02-09T09:21:53.183Z,95161.90
2018-02-09T09:24:21.262Z,95156.60
2018-02-09T09:26:49.292Z,95149.72
2018-02-09T09:29:17.276Z,95142.94
2018-02-09T09:31:45.287Z,95142.27
2018-02-09T09:34:13.114Z,95147.42
2018-02-09T09:36:41.078Z,95147.58
2018-02-09T09:39:09.075Z,95146.38
2018-02-09T09:41:37.091Z,95140.36
2018-02-09T09:44:05.128Z,95144.52
2018-02-09T09:46:33.181Z,95134.62
2018-02-09T09:49:01.195Z,95131.95
2018-02-09T09:51:29.171Z,95133.21
2018-02-09T09:53:57.298Z,95118.13
2018-02-09T09:56:25.351Z,95127.95
2018-02-09T09:58:53.383Z,95121.44
2018-02-09T10:01:28.120Z,95124.36
2018-02-09T10:03:56.116Z,95129.76
2018-02-09T10:06:24.248Z,95121.88
2018-02-09T10:08:52.285Z,95113.89
2018-02-09T10:11:20.332Z,95107.44
2018-02-09T10:13:48.392Z,95019.64
2018-02-09T10:16:16.338Z,95105.78
2018-02-09T10:18:44.290Z,95100.20
2018-02-09T10:21:12.292Z,95105.66
2018-02-09T10:23:40.422Z,95103.84
2018-02-09T10:26:08.428Z,95092.70
2018-02-09T10:28:36.513Z,95086.13
2018-02-09T10:31:04.458Z,95085.61
2018-02-09T10:33:32.391Z,95069.88
2018-02-09T10:36:00.392Z,95075.28
2018-02-09T10:38:28.368Z,95059.39
2018-02-09T10:40:56.359Z,95064.61
2018-02-09T10:43:24.278Z,95069.55
2018-02-09T10:45:52.270Z,95066.09
2018-02-09T10:48:20.320Z,95065.08
2018-02-09T10:50:48.345Z,95056.33
2018-02-09T10:53:16.352Z,95057.19
2018-02-09T10:55:44.415Z,95050.23
2018-02-09T10:58:12.428Z,95042.55
2018-02-09T11:00:45.984Z,95034.28
2018-02-09T11:03:14.816Z,95031.34
2018-02-09T11:05:42.855Z,95041.97
2018-02-09T11:08:10.871Z,95036.12
2018-02-09T11:10:44.529Z,95035.17
2018-02-09T11:13:16.381Z,95036.02
2018-02-09T11:15:44.355Z,95030.62
2018-02-09T11:18:12.655Z,95021.33
2018-02-09T11:20:40.698Z,95004.12
2018-02-09T11:23:11.118Z,95008.30
2018-02-09T11:25:39.802Z,95010.82
2018-02-09T11:28:10.743Z,95007.02
2018-02-09T11:30:40.627Z,95008.23
2018-02-09T11:33:08.687Z,95013.05
2018-02-09T11:35:36.706Z,95024.37
2018-02-09T11:38:04.746Z,95025.09
2018-02-09T11:40:32.733Z,95028.03
2018-02-09T11:43:00.730Z,95020.65
2018-02-09T11:45:28.682Z,95024.93
2018-02-09T11:47:56.705Z,95021.91
2018-02-09T11:50:24.663Z,95022.23
2018-02-09T11:52:52.668Z,95014.62
2018-02-09T11:55:20.679Z,95010.34
2018-02-09T11:57:48.687Z,95000.58
2018-02-09T12:00:16.710Z,95001.20
2018-02-09T12:02:44.715Z,95002.38
2018-02-09T12:05:13.367Z,94993.66
2018-02-09T12:07:41.350Z,94998.05
2018-02-09T12:10:09.326Z,94997.31
2018-02-09T12:12:37.874Z,94995.68
2018-02-09T12:15:06.254Z,94989.02
2018-02-09T12:17:34.611Z,94979.06
2018-02-09T12:20:03.010Z,94978.87
2018-02-09T12:22:31.369Z,94967.66
2018-02-09T12:24:59.766Z,94974.80
2018-02-09T12:27:28.125Z,94972.44
2018-02-09T12:29:56.535Z,94972.22
2018-02-09T12:32:24.897Z,94948.03
2018-02-09T12:34:53.278Z,94967.92
2018-02-09T12:37:21.657Z,94965.73
2018-02-09T12:39:50.195Z,94965.95
2018-02-09T12:42:18.700Z,94971.97
2018-02-09T12:44:46.994Z,94969.28
2018-02-09T12:47:15.777Z,94962.42
2018-02-09T12:49:43.958Z,94954.17
2018-02-09T12:52:12.640Z,94953.53
2018-02-09T12:54:41.530Z,94948.81
2018-02-09T12:57:10.010Z,94937.07
2018-02-09T12:59:38.385Z,94941.77
2018-02-09T13:02:06.850Z,94942.27
2018-02-09T13:04:35.245Z,94929.62
2018-02-09T13:07:04.246Z,94924.08
2018-02-09T13:09:32.496Z,94927.56
2018-02-09T13:12:00.934Z,94921.62
2018-02-09T13:14:41.334Z,94909.56
2018-02-09T13:17:15.777Z,94905.63
2018-02-09T13:19:44.149Z,94905.67
2018-02-09T13:22:24.323Z,94901.58
2018-02-09T13:24:52.685Z,94896.91
2018-02-09T13:27:21.686Z,94894.17
2018-02-09T13:29:50.054Z,94888.61
2018-02-09T13:32:30.518Z,94880.80
2018-02-09T13:34:59.002Z,94884.16
2018-02-09T13:37:35.361Z,94885.74
2018-02-09T13:40:03.857Z,94892.23
2018-02-09T13:42:32.119Z,94897.05
2018-02-09T13:45:00.707Z,94884.80
2018-02-09T13:47:29.692Z,94891.47
2018-02-09T13:49:58.017Z,94885.91
2018-02-09T13:52:26.653Z,94887.26
2018-02-09T13:54:55.134Z,94888.33
2018-02-09T13:57:23.524Z,94882.41
2018-02-09T13:59:51.973Z,94882.58
2018-02-09T14:02:20.683Z,94878.07
2018-02-09T14:04:48.668Z,94880.53
2018-02-09T14:07:17.312Z,94881.39
2018-02-09T14:09:45.462Z,94883.90
2018-02-09T14:12:13.423Z,94884.56
2018-02-09T14:14:41.440Z,94884.08
2018-02-09T14:17:09.462Z,94884.48
2018-02-09T14:19:37.404Z,94884.73
2018-02-09T14:22:05.331Z,94872.23
2018-02-09T14:24:33.291Z,94876.31
2018-02-09T14:27:01.226Z,94881.62
2018-02-09T14:29:29.234Z,94879.61
2018-02-09T14:31:57.207Z,94872.10
2018-02-09T14:34:25.195Z,94881.63
2018-02-09T14:36:53.275Z,94881.75
2018-02-09T14:39:21.234Z,94879.11
2018-02-09T14:41:49.238Z,94873.47
2018-02-09T14:44:17.190Z,94881.25
2018-02-09T14:46:45.216Z,94884.64
2018-02-09T14:49:13.271Z,94885.03
2018-02-09T14:51:41.318Z,94885.66
2018-02-09T14:54:09.392Z,94876.92
2018-02-09T14:56:37.433Z,94888.22
2018-02-09T14:59:07.755Z,94884.98
2018-02-09T15:01:35.711Z,94882.75
2018-02-09T15:04:03.669Z,94892.72
2018-02-09T15:06:31.714Z,94894.35
2018-02-09T15:08:59.754Z,94891.88
2018-02-09T15:11:27.849Z,94893.75
2018-02-09T15:13:55.854Z,94897.58
2018-02-09T15:16:23.837Z,94891.99
2018-02-09T15:18:51.754Z,94877.22
2018-02-09T15:21:19.719Z,94893.14
2018-02-09T15:23:47.792Z,94892.70
2018-02-09T15:26:15.760Z,94891.70
2018-02-09T15:28:43.747Z,94884.98
2018-02-09T15:31:11.673Z,94888.20
2018-02-09T15:33:39.734Z,94875.16
2018-02-09T15:36:07.731Z,94872.89
2018-02-09T15:38:35.785Z,94866.19
2018-02-09T15:41:03.730Z,94863.20
2018-02-09T15:43:31.677Z,94860.07
2018-02-09T15:45:59.674Z,94857.41
2018-02-09T15:48:27.699Z,94857.92
2018-02-09T15:50:55.773Z,94861.50
2018-02-09T15:53:23.693Z,94857.50
2018-02-09T15:55:51.678Z,94854.22
2018-02-09T15:58:19.697Z,94862.73
2018-02-09T16:00:47.623Z,94875.64
2018-02-09T16:03:15.614Z,94878.18
2018-02-09T16:05:43.700Z,94873.92
2018-02-09T16:08:11.690Z,94875.94
2018-02-09T16:10:43.007Z,94866.31
2018-02-09T16:13:11.457Z,94875.83
2018-02-09T16:15:40.021Z,94881.09
2018-02-09T16:18:09.841Z,94879.80
2018-02-09T16:20:37.857Z,94886.77
2018-02-09T16:23:05.853Z,94887.24
2018-02-09T16:25:33.836Z,94892.53
2018-02-09T16:28:01.955Z,94904.25
2018-02-09T16:30:30.053Z,94896.44
2018-02-09T16:32:58.146Z,94896.12
2018-02-09T16:35:26.109Z,94899.58
2018-02-09T16:37:54.086Z,94902.16
2018-02-09T16:40:22.054Z,94903.84
2018-02-09T16:42:50.010Z,94911.94
2018-02-09T16:45:18.011Z,94922.92
2018-02-09T16:47:45.998Z,94918.78
2018-02-09T16:50:13.999Z,94919.89
2018-02-09T16:52:42.029Z,94920.31
2018-02-09T16:55:10.016Z,94925.23
2018-02-09T16:57:38.074Z,94924.94
2018-02-09T17:00:06.046Z,94924.61
2018-02-09T17:02:33.966Z,94914.66
2018-02-09T17:05:01.913Z,94921.91
2018-02-09T17:07:29.853Z,94932.36
2018-02-09T17:09:57.862Z,94924.39
2018-02-09T17:12:26.533Z,94929.98
2018-02-09T17:14:55.570Z,94925.25
2018-02-09T17:17:23.566Z,94920.62
2018-02-09T17:19:51.711Z,94924.21
2018-02-09T17:22:19.829Z,94930.47
2018-02-09T17:24:47.808Z,94931.95
2018-02-09T17:27:15.801Z,94940.87
2018-02-09T17:29:43.772Z,94945.11
2018-02-09T17:32:11.730Z,94955.20
2018-02-09T17:34:39.709Z,94965.22
2018-02-09T17:37:07.798Z,94966.23
2018-02-09T17:39:35.882Z,94978.96
2018-02-09T17:42:03.819Z,94978.29
2018-02-09T17:44:31.855Z,94950.82
2018-02-09T17:46:59.837Z,94976.98
2018-02-09T17:49:27.842Z,94977.95
2018-02-09T17:51:55.783Z,94983.63
2018-02-09T17:54:23.792Z,94987.86
2018-02-09T17:56:51.811Z,94994.38
2018-02-09T17:59:19.726Z,94995.55
2018-02-09T18:01:47.729Z,94990.04
2018-02-09T18:04:15.758Z,94996.98
2018-02-09T18:06:43.742Z,95006.85
2018-02-09T18:09:11.779Z,95005.15
2018-02-09T18:11:39.746Z,94994.98
2018-02-09T18:14:08.204Z,94989.87
2018-02-09T18:16:36.173Z,94981.29
2018-02-09T18:19:04.119Z,94996.84
2018-02-09T18:21:32.106Z,95001.50
2018-02-09T18:24:00.066Z,94978.90
2018-02-09T18:26:27.930Z,94986.45
2018-02-09T18:28:55.915Z,95002.20
2018-02-09T18:31:23.859Z,95009.96
2018-02-09T18:33:51.878Z,95004.14
2018-02-09T18:36:19.883Z,94989.20
2018-02-09T18:38:47.943Z,94984.76
2018-02-09T18:41:16.842Z,94994.17
2018-02-09T18:43:45.101Z,95003.16
2018-02-09T18:46:13.212Z,95003.36
2018-02-09T18:48:41.221Z,95011.56
2018-02-09T18:51:09.570Z,95002.20
2018-02-09T18:53:39.635Z,95004.40
2018-02-09T18:56:07.657Z,95010.80
2018-02-09T18:58:35.606Z,95017.10
2018-02-09T19:01:05.149Z,95009.26
2018-02-09T19:03:38.917Z,95006.14
2018-02-09T19:06:06.924Z,95004.72
2018-02-09T19:08:34.913Z,95017.08
2018-02-09T19:11:02.886Z,95026.20
2018-02-09T19:13:30.894Z,95038.27
2018-02-09T19:15:59.407Z,95047.22
2018-02-09T19:18:28.749Z,95045.34
2018-02-09T19:20:56.771Z,95044.94
2018-02-09T19:23:24.769Z,95050.69
2018-02-09T19:25:53.841Z,95047.13
2018-02-09T19:28:21.881Z,95052.18
2018-02-09T19:30:53.431Z,95051.92
2018-02-09T19:33:21.578Z,95052.61
2018-02-09T19:35:51.141Z,95056.16
2018-02-09T19:38:19.788Z,95055.11
2018-02-09T19:40:47.802Z,95052.19
2018-02-09T19:43:15.798Z,95051.91
2018-02-09T19:45:43.807Z,94984.16
2018-02-09T19:48:11.781Z,95043.41
2018-02-09T19:50:39.795Z,95038.38
2018-02-09T19:53:07.782Z,95017.59
2018-02-09T19:55:35.793Z,95017.13
2018-02-09T19:58:03.799Z,95031.94
2018-02-09T20:00:31.767Z,95027.55
2018-02-09T20:02:59.826Z,95032.55
2018-02-09T20:05:27.797Z,95027.59
2018-02-09T20:07:55.778Z,95035.56
2018-02-09T20:10:23.839Z,95043.23
2018-02-09T20:12:51.766Z,95047.96
2018-02-09T20:15:19.799Z,95045.56
2018-02-09T20:17:48.543Z,95045.34
2018-02-09T20:20:16.485Z,95038.29
2018-02-09T20:22:44.490Z,95028.42
2018-02-09T20:25:12.491Z,95028.61
2018-02-09T20:27:40.551Z,95027.73
2018-02-09T20:30:08.535Z,95027.72
2018-02-09T20:32:36.619Z,95025.91
2018-02-09T20:35:04.642Z,95020.17
2018-02-09T20:37:32.643Z,95019.55
2018-02-09T20:40:00.616Z,95014.58
2018-02-09T20:42:28.640Z,95011.89
2018-02-09T20:44:56.636Z,95022.79
2018-02-09T20:47:26.015Z,95034.39
2018-02-09T20:49:53.981Z,95039.21
2018-02-09T20:52:21.997Z,95032.97
2018-02-09T20:54:49.992Z,95033.77
2018-02-09T20:57:17.904Z,95037.45
2018-02-09T20:59:45.993Z,95044.30
2018-02-09T21:02:14.026Z,95048.36
2018-02-09T21:04:42.354Z,95028.69
2018-02-09T21:07:10.333Z,95053.06
2018-02-09T21:09:38.287Z,95047.98
2018-02-09T21:12:07.969Z,95050.86
2018-02-09T21:14:38.906Z,95046.24
2018-02-09T21:17:07.275Z,95045.58
2018-02-09T21:19:35.334Z,95043.97
2018-02-09T21:22:03.271Z,95043.80
2018-02-09T21:24:31.213Z,95039.98
2018-02-09T21:26:59.208Z,95027.70
2018-02-09T21:29:27.251Z,95030.45
2018-02-09T21:31:55.286Z,95032.25
2018-02-09T21:34:23.282Z,95040.16
2018-02-09T21:36:51.314Z,95035.01
2018-02-09T21:39:19.298Z,94961.08
2018-02-09T21:41:47.305Z,95035.30
2018-02-09T21:44:15.319Z,95026.17
2018-02-09T21:46:43.265Z,95021.84
2018-02-09T21:49:11.262Z,95014.58
2018-02-09T21:51:39.334Z,95028.17
2018-02-09T21:54:07.275Z,95040.13
2018-02-09T21:56:35.282Z,95036.77
2018-02-09T21:59:03.277Z,95035.10
2018-02-09T22:01:31.258Z,95032.13
2018-02-09T22:03:59.214Z,95019.97
2018-02-09T22:06:27.206Z,95020.75
2018-02-09T22:08:55.225Z,95021.56
2018-02-09T22:11:23.191Z,95025.89
2018-02-09T22:13:51.199Z,95022.88
2018-02-09T22:16:19.241Z,95026.84
2018-02-09T22:18:47.230Z,95031.18
2018-02-09T22:21:15.974Z,95027.48
2018-02-09T22:23:43.940Z,95037.66
2018-02-09T22:26:11.928Z,95047.19
2018-02-09T22:28:39.913Z,95055.77
2018-02-09T22:31:07.913Z,95053.64
2018-02-09T22:33:35.941Z,95050.47
2018-02-09T22:36:03.870Z,95043.47
2018-02-09T22:38:31.806Z,95032.25
2018-02-09T22:40:59.795Z,95019.56
2018-02-09T22:43:27.762Z,95028.14
2018-02-09T22:45:55.743Z,95024.72
2018-02-09T22:48:23.762Z,95020.34
2018-02-09T22:50:51.731Z,95020.06
2018-02-09T22:53:19.694Z,95013.64
2018-02-09T22:55:47.715Z,95005.03
2018-02-09T22:58:15.671Z,95007.08
2018-02-09T23:00:43.758Z,95015.98
2018-02-09T23:03:11.765Z,95011.36
2018-02-09T23:05:39.784Z,95012.84
2018-02-09T23:08:07.866Z,95009.80
2018-02-09T23:10:35.823Z,95000.94
2018-02-09T23:13:03.780Z,95009.00
2018-02-09T23:15:31.725Z,95014.16
2018-02-09T23:17:59.730Z,95021.01
2018-02-09T23:20:27.677Z,95017.84
2018-02-09T23:22:56.097Z,95011.77
2018-02-09T23:25:24.013Z,95003.44
2018-02-09T23:27:52.130Z,95003.31
2018-02-09T23:30:20.110Z,94997.89
2018-02-09T23:32:48.066Z,95013.20
2018-02-09T23:35:16.034Z,95013.36
2018-02-09T23:37:44.105Z,95012.45
2018-02-09T23:40:12.038Z,95009.09
2018-02-09T23:42:40.028Z,95004.39
2018-02-09T23:45:08.002Z,94997.70
2018-02-09T23:47:36.014Z,95003.58
2018-02-09T23:50:04.042Z,95006.09
2018-02-09T23:52:32.004Z,95007.73
2018-02-09T23:55:00.053Z,94997.00
2018-02-09T23:57:28.015Z,94999.94
2018-02-09T23:59:56.019Z,95001.05
